Time;durP1;ratioP1;P1;durP2;ratioP2;P2;SDS_P1;SDS_P2;PMS_P1;PMS_P2;Temp;Humidity;BMP_temperature;BMP_pressure;BME280_temperature;BME280_humidity;BME280_pressure;Samples;Min_cycle;Max_cycle;Signal;HPM_P1;HPM_P2
2024/04/14 00:00:32;;;;;;;4.40;4.00;;;;;;;12.93;100.00;100461.02;86831;269;137267;-71
2024/04/14 00:02:33;;;;;;;3.60;3.30;;;;;;;12.91;100.00;100463.27;86889;270;24020;-72
2024/04/14 00:04:34;;;;;;;4.60;4.20;;;;;;;12.89;100.00;100462.81;86788;275;138499;-73
2024/04/14 00:06:34;;;;;;;5.10;4.60;;;;;;;12.86;100.00;100467.33;86910;270;23834;-70
2024/04/14 00:08:35;;;;;;;6.50;3.90;;;;;;;12.80;100.00;100466.08;86670;266;136644;-70
2024/04/14 00:10:36;;;;;;;4.40;4.00;;;;;;;12.78;100.00;100463.39;86834;274;22590;-72
2024/04/14 00:12:36;;;;;;;3.90;3.60;;;;;;;12.74;100.00;100467.95;86730;270;138239;-71
2024/04/14 00:14:37;;;;;;;4.20;3.70;;;;;;;12.72;100.00;100468.95;86853;269;25121;-71
2024/04/14 00:16:38;;;;;;;4.40;3.90;;;;;;;12.71;100.00;100472.24;86740;269;137434;-71
2024/04/14 00:18:38;;;;;;;3.50;3.20;;;;;;;12.72;100.00;100472.70;86909;269;26793;-71
2024/04/14 00:20:39;;;;;;;3.70;3.50;;;;;;;12.72;100.00;100472.58;86755;272;136880;-73
2024/04/14 00:22:40;;;;;;;3.80;3.60;;;;;;;12.72;100.00;100469.52;86921;269;22640;-71
2024/04/14 00:24:40;;;;;;;3.50;3.30;;;;;;;12.74;100.00;100472.71;86785;269;137709;-73
2024/04/14 00:26:41;;;;;;;4.10;3.80;;;;;;;12.74;100.00;100469.05;86828;270;24068;-72
2024/04/14 00:28:44;;;;;;;4.30;3.40;;;;;;;12.76;100.00;100467.73;86807;271;137073;-71
2024/04/14 00:30:45;;;;;;;3.70;3.40;;;;;;;12.79;100.00;100466.52;86893;269;22639;-71
2024/04/14 00:32:47;;;;;;;4.70;4.30;;;;;;;12.82;100.00;100469.30;86752;276;137242;-75
2024/04/14 00:34:51;;;;;;;3.70;3.40;;;;;;;12.85;100.00;100471.19;86929;269;23998;-76
2024/04/14 00:36:52;;;;;;;2.20;2.10;;;;;;;12.90;100.00;100474.50;86840;270;137926;-71
2024/04/14 00:38:53;;;;;;;2.70;2.60;;;;;;;12.92;100.00;100473.45;86873;266;22668;-73
2024/04/14 00:40:54;;;;;;;5.60;2.20;;;;;;;12.93;100.00;100472.30;86771;269;137967;-71
2024/04/14 00:42:56;;;;;;;1.80;1.70;;;;;;;12.93;100.00;100472.26;86934;269;22583;-73
2024/04/14 00:44:57;;;;;;;1.30;1.20;;;;;;;12.94;100.00;100472.17;87046;269;138119;-74
2024/04/14 00:46:58;;;;;;;1.20;1.20;;;;;;;12.93;99.29;100468.92;86852;269;22535;-75
2024/04/14 00:48:59;;;;;;;1.40;1.40;;;;;;;12.93;98.56;100469.49;86784;269;136581;-72
2024/04/14 00:51:01;;;;;;;1.10;1.10;;;;;;;12.91;97.58;100470.19;86992;273;22573;-76
2024/04/14 00:53:02;;;;;;;1.20;1.20;;;;;;;12.91;97.31;100464.23;86924;265;136376;-73
2024/04/14 00:55:03;;;;;;;1.50;1.50;;;;;;;12.90;97.11;100459.48;86978;273;26624;-77
2024/04/14 00:58:27;;;;;;;1.20;1.00;;;;;;;12.89;97.19;100458.94;84850;305;603032;-74
2024/04/14 01:00:29;;;;;;;1.70;1.60;;;;;;;12.83;96.77;100462.66;86532;276;136426;-75
2024/04/14 01:02:30;;;;;;;2.20;1.60;;;;;;;12.77;96.84;100461.58;86332;286;24083;-73
2024/04/14 01:04:30;;;;;;;1.70;1.20;;;;;;;12.69;97.16;100463.77;86470;283;135118;-72
2024/04/14 01:06:31;;;;;;;0.80;0.80;;;;;;;12.64;97.26;100465.01;86259;288;22574;-70
2024/04/14 01:08:32;;;;;;;2.00;0.80;;;;;;;12.61;97.35;100462.73;86239;286;138088;-73
2024/04/14 01:10:35;;;;;;;1.60;0.70;;;;;;;12.59;97.28;100460.43;86264;286;24379;-74
2024/04/14 01:12:35;;;;;;;2.20;0.90;;;;;;;12.58;97.02;100460.42;85733;285;815108;-74
2024/04/14 01:14:36;;;;;;;1.00;0.60;;;;;;;12.57;96.54;100460.91;86596;281;24052;-72
2024/04/14 01:16:37;;;;;;;0.40;0.30;;;;;;;12.55;96.53;100462.23;86578;277;136727;-71
2024/04/14 01:18:37;;;;;;;0.70;0.40;;;;;;;12.54;96.61;100461.44;86718;281;22664;-73
2024/04/14 01:20:39;;;;;;;0.60;0.60;;;;;;;12.54;96.42;100463.36;86560;284;137209;-74
2024/04/14 01:22:40;;;;;;;0.70;0.70;;;;;;;12.52;96.32;100460.64;86796;272;23773;-76
2024/04/14 01:24:41;;;;;;;0.70;0.60;;;;;;;12.51;96.30;100457.09;86705;277;136777;-74
2024/04/14 01:26:43;;;;;;;0.90;0.90;;;;;;;12.49;96.26;100463.04;86779;276;22741;-75
2024/04/14 01:28:44;;;;;;;0.80;0.80;;;;;;;12.49;96.38;100464.86;86640;284;136733;-75
2024/04/14 01:30:44;;;;;;;0.50;0.50;;;;;;;12.48;96.56;100466.87;86792;272;24187;-76
2024/04/14 01:32:45;;;;;;;2.10;0.80;;;;;;;12.48;96.55;100467.11;86725;276;136540;-76
2024/04/14 01:34:45;;;;;;;1.30;1.20;;;;;;;12.46;96.47;100465.63;86700;276;22577;-73
2024/04/14 01:36:46;;;;;;;0.60;0.60;;;;;;;12.45;96.44;100463.98;86688;284;138710;-75
2024/04/14 01:38:47;;;;;;;0.80;0.80;;;;;;;12.45;96.50;100468.13;86765;284;25247;-76
2024/04/14 01:40:47;;;;;;;3.60;0.70;;;;;;;12.46;96.18;100467.27;86711;272;137473;-76
2024/04/14 01:42:48;;;;;;;1.10;1.00;;;;;;;12.43;96.58;100470.84;86916;274;22566;-75
2024/04/14 01:44:49;;;;;;;3.10;0.90;;;;;;;12.42;96.61;100471.80;86805;275;137726;-75
2024/04/14 01:46:50;;;;;;;1.20;0.90;;;;;;;12.40;96.89;100464.86;87100;273;22539;-74
2024/04/14 01:48:50;;;;;;;1.40;0.90;;;;;;;12.39;96.96;100462.30;86963;281;136554;-74
2024/04/14 01:50:51;;;;;;;1.90;0.90;;;;;;;12.37;97.18;100459.36;87101;282;22579;-73
2024/04/14 01:52:52;;;;;;;1.60;1.00;;;;;;;12.39;97.18;100461.64;86871;270;137313;-75
2024/04/14 01:54:53;;;;;;;3.40;0.80;;;;;;;12.37;97.44;100465.45;87001;274;22622;-73
2024/04/14 01:56:53;;;;;;;1.10;0.60;;;;;;;12.36;97.61;100470.39;86937;278;136736;-71
2024/04/14 01:58:54;;;;;;;1.70;0.90;;;;;;;12.35;97.87;100469.50;87026;281;22566;-75
2024/04/14 02:00:55;;;;;;;1.30;1.20;;;;;;;12.32;98.29;100468.79;86900;266;136409;-72
2024/04/14 02:02:56;;;;;;;1.00;0.90;;;;;;;12.29;98.57;100467.71;87172;272;22647;-72
2024/04/14 02:04:56;;;;;;;1.50;1.40;;;;;;;12.27;99.07;100475.39;87317;271;136459;-77
2024/04/14 02:06:57;;;;;;;1.10;1.00;;;;;;;12.26;99.01;100485.37;87581;279;22566;-75
2024/04/14 02:08:58;;;;;;;1.90;1.30;;;;;;;12.24;99.39;100479.49;87281;272;136763;-74
2024/04/14 02:11:02;;;;;;;1.10;1.10;;;;;;;12.21;99.59;100476.12;87208;271;22601;-72
2024/04/14 02:13:03;;;;;;;1.20;1.10;;;;;;;12.18;99.76;100483.22;87452;271;136432;-75
2024/04/14 02:15:05;;;;;;;3.10;1.60;;;;;;;12.14;99.72;100487.38;87407;271;22589;-77
2024/04/14 02:17:05;;;;;;;1.80;1.30;;;;;;;12.12;99.94;100487.13;87139;275;137324;-74
2024/04/14 02:19:06;;;;;;;1.70;1.40;;;;;;;12.09;99.94;100486.61;87171;267;22647;-73
2024/04/14 02:21:07;;;;;;;0.70;0.70;;;;;;;12.05;100.00;100487.69;87206;281;136763;-76
2024/04/14 02:23:07;;;;;;;2.80;1.60;;;;;;;12.02;100.00;100488.78;87748;275;22515;-74
2024/04/14 02:25:08;;;;;;;1.90;0.80;;;;;;;11.99;100.00;100489.98;87356;273;136613;-70
2024/04/14 02:27:09;;;;;;;2.00;1.40;;;;;;;11.99;100.00;100489.30;88653;267;22609;-74
2024/04/14 02:29:10;;;;;;;1.00;1.00;;;;;;;12.01;100.00;100480.92;88607;270;137317;-73
2024/04/14 02:31:11;;;;;;;1.00;1.00;;;;;;;12.00;100.00;100477.92;88383;268;22571;-74
2024/04/14 02:33:11;;;;;;;1.50;1.20;;;;;;;12.00;100.00;100479.23;88285;272;136940;-75
2024/04/14 02:35:12;;;;;;;0.90;0.70;;;;;;;12.01;99.91;100479.52;88360;273;22564;-77
2024/04/14 02:37:13;;;;;;;1.10;0.90;;;;;;;12.02;99.94;100479.73;87689;274;136550;-76
2024/04/14 02:39:14;;;;;;;1.50;1.40;;;;;;;12.02;99.85;100481.22;87325;271;24001;-78
2024/04/14 02:41:15;;;;;;;1.60;1.50;;;;;;;12.02;99.80;100481.84;87093;272;137980;-76
2024/04/14 02:43:16;;;;;;;0.90;0.90;;;;;;;12.01;99.83;100477.67;87138;276;22555;-77
2024/04/14 02:45:17;;;;;;;4.40;0.90;;;;;;;12.00;99.68;100474.91;87054;271;136272;-73
2024/04/14 02:47:18;;;;;;;1.30;1.20;;;;;;;12.00;99.54;100470.80;87177;280;22565;-76
2024/04/14 02:49:18;;;;;;;1.40;1.30;;;;;;;12.00;99.50;100473.35;87174;267;136587;-74
2024/04/14 02:51:20;;;;;;;1.40;1.10;;;;;;;12.00;99.17;100472.61;87200;271;22571;-73
2024/04/14 02:53:22;;;;;;;1.30;1.20;;;;;;;11.99;99.07;100469.16;87166;270;136952;-74
2024/04/14 02:55:23;;;;;;;1.60;1.30;;;;;;;11.99;98.92;100463.39;87458;276;24156;-75
2024/04/14 02:57:24;;;;;;;2.50;1.30;;;;;;;11.97;98.83;100458.20;87108;263;136099;-77
2024/04/14 02:59:24;;;;;;;2.80;1.30;;;;;;;11.95;98.77;100457.29;87146;276;22600;-75
2024/04/14 03:01:25;;;;;;;1.30;1.30;;;;;;;11.92;98.64;100458.05;87038;266;136388;-76
2024/04/14 03:03:26;;;;;;;2.30;1.40;;;;;;;11.88;98.63;100453.97;87152;270;22581;-75
2024/04/14 03:05:27;;;;;;;5.10;1.30;;;;;;;11.86;98.90;100448.85;87141;279;136526;-73
2024/04/14 03:07:28;;;;;;;2.10;1.40;;;;;;;11.82;98.97;100446.48;87192;276;25310;-71
2024/04/14 03:09:28;;;;;;;1.60;1.50;;;;;;;11.75;98.96;100442.77;87208;270;136805;-71
2024/04/14 03:11:29;;;;;;;1.60;1.50;;;;;;;11.73;99.52;100448.45;87233;278;22549;-73
2024/04/14 03:13:30;;;;;;;1.40;1.30;;;;;;;11.73;99.59;100456.02;87135;271;136584;-75
2024/04/14 03:15:30;;;;;;;1.30;1.20;;;;;;;11.73;99.61;100454.94;87131;270;22559;-76
2024/04/14 03:17:32;;;;;;;1.50;1.40;;;;;;;11.72;99.84;100452.27;87170;278;137751;-76
2024/04/14 03:19:32;;;;;;;3.70;1.80;;;;;;;11.70;99.95;100452.34;87233;278;22551;-71
2024/04/14 03:21:33;;;;;;;2.40;1.50;;;;;;;11.69;100.00;100457.02;87131;267;137373;-75
2024/04/14 03:23:34;;;;;;;1.70;1.60;;;;;;;11.70;100.00;100453.36;87163;279;22567;-75
2024/04/14 03:25:34;;;;;;;1.50;1.40;;;;;;;11.72;100.00;100455.27;86902;272;136421;-73
2024/04/14 03:27:35;;;;;;;2.10;1.80;;;;;;;11.74;100.00;100453.96;87092;271;22561;-77
2024/04/14 03:29:36;;;;;;;2.10;2.00;;;;;;;11.76;100.00;100457.31;86918;271;136737;-75
2024/04/14 03:31:37;;;;;;;1.50;1.50;;;;;;;11.79;100.00;100457.91;87078;280;24000;-72
2024/04/14 03:33:37;;;;;;;2.10;1.70;;;;;;;11.83;99.94;100457.16;87209;270;138021;-73
2024/04/14 03:35:38;;;;;;;2.70;2.30;;;;;;;11.86;99.71;100457.77;87018;279;24184;-73
2024/04/14 03:37:40;;;;;;;2.80;1.80;;;;;;;11.89;99.64;100462.08;86994;276;136534;-72
2024/04/14 03:39:40;;;;;;;5.00;1.60;;;;;;;11.92;99.30;100459.44;87124;271;25076;-71
2024/04/14 03:41:41;;;;;;;2.40;2.10;;;;;;;11.94;99.34;100459.79;86939;269;136865;-71
2024/04/14 03:43:42;;;;;;;3.50;2.40;;;;;;;11.97;98.96;100458.45;87150;271;22847;-76
2024/04/14 03:45:43;;;;;;;1.50;1.40;;;;;;;12.00;98.95;100455.38;87031;271;136718;-73
2024/04/14 03:47:44;;;;;;;6.80;2.30;;;;;;;12.15;98.98;100452.94;87193;268;22587;-71
2024/04/14 03:49:45;;;;;;;3.10;1.80;;;;;;;12.40;98.52;100455.06;87101;267;136461;-72
2024/04/14 03:51:47;;;;;;;2.10;1.80;;;;;;;12.65;96.53;100452.96;87168;275;22632;-74
2024/04/14 03:53:47;;;;;;;3.10;2.10;;;;;;;12.78;94.46;100452.27;86917;263;136126;-74
2024/04/14 03:55:48;;;;;;;2.90;1.90;;;;;;;12.83;93.47;100448.64;87106;268;22552;-73
2024/04/14 03:57:49;;;;;;;1.70;1.60;;;;;;;12.83;92.74;100454.85;87003;272;136132;-75
2024/04/14 03:59:49;;;;;;;1.90;1.60;;;;;;;12.84;92.17;100454.02;87176;267;25130;-75
2024/04/14 04:01:50;;;;;;;1.80;1.60;;;;;;;12.97;92.07;100449.98;86951;271;140081;-71
2024/04/14 04:03:51;;;;;;;1.50;1.50;;;;;;;13.24;91.58;100446.52;87031;272;22560;-72
2024/04/14 04:05:54;;;;;;;1.30;1.30;;;;;;;13.60;89.63;100445.11;87087;263;135936;-77
2024/04/14 04:07:55;;;;;;;2.00;1.20;;;;;;;14.07;87.23;100447.35;87388;275;24026;-74
2024/04/14 04:09:56;;;;;;;1.50;1.20;;;;;;;14.60;83.87;100447.23;87047;267;135792;-74
2024/04/14 04:11:58;;;;;;;1.70;1.30;;;;;;;15.15;79.28;100449.16;87156;276;22563;-75
2024/04/14 04:14:00;;;;;;;1.60;1.30;;;;;;;15.54;74.71;100445.45;87125;278;137470;-75
2024/04/14 04:16:03;;;;;;;4.10;1.10;;;;;;;15.86;74.81;100448.88;87106;279;25146;-77
2024/04/14 04:18:04;;;;;;;1.40;0.90;;;;;;;16.33;72.07;100451.84;87363;278;24193;-73
2024/04/14 04:20:05;;;;;;;0.90;0.70;;;;;;;16.82;69.66;100454.81;87087;270;136073;-71
2024/04/14 04:22:06;;;;;;;2.60;1.40;;;;;;;17.31;66.62;100454.16;87218;270;24919;-76
2024/04/14 04:24:07;;;;;;;0.80;0.80;;;;;;;17.76;63.53;100455.91;86896;271;136437;-75
2024/04/14 04:26:07;;;;;;;0.80;0.80;;;;;;;18.06;61.65;100452.27;87065;278;22542;-74
2024/04/14 04:28:08;;;;;;;1.20;0.80;;;;;;;18.40;59.90;100454.91;87040;270;137724;-73
2024/04/14 04:30:09;;;;;;;0.90;0.40;;;;;;;18.73;58.57;100454.30;87028;272;22604;-74
2024/04/14 04:32:10;;;;;;;1.50;0.70;;;;;;;19.05;57.17;100451.21;86814;280;136979;-72
2024/04/14 04:34:11;;;;;;;1.10;0.70;;;;;;;19.37;56.08;100447.19;87216;270;22558;-76
2024/04/14 04:36:13;;;;;;;0.70;0.60;;;;;;;19.62;54.19;100442.64;86975;271;136380;-76
2024/04/14 04:38:14;;;;;;;0.60;0.60;;;;;;;19.75;53.09;100437.85;87158;279;25345;-78
2024/04/14 04:40:14;;;;;;;2.90;1.00;;;;;;;19.77;52.23;100438.46;87130;270;136627;-75
2024/04/14 04:42:15;;;;;;;1.40;0.40;;;;;;;19.79;52.07;100432.64;87046;269;24116;-76
2024/04/14 04:44:16;;;;;;;3.20;0.90;;;;;;;19.90;52.19;100430.00;86936;271;137458;-73
2024/04/14 04:46:17;;;;;;;0.40;0.30;;;;;;;20.10;51.55;100428.92;87093;280;22564;-74
2024/04/14 04:48:17;;;;;;;0.70;0.50;;;;;;;20.25;50.67;100426.70;87012;268;136496;-73
2024/04/14 04:50:18;;;;;;;0.90;0.30;;;;;;;20.28;49.48;100425.73;87006;278;22567;-77
2024/04/14 04:52:18;;;;;;;0.50;0.50;;;;;;;20.21;49.39;100421.80;87006;271;136703;-75
2024/04/14 04:54:19;;;;;;;0.90;0.40;;;;;;;20.23;49.22;100421.53;87128;276;24001;-77
2024/04/14 04:56:20;;;;;;;1.50;0.30;;;;;;;20.33;49.06;100418.98;87078;276;136614;-74
2024/04/14 04:58:21;;;;;;;0.70;0.20;;;;;;;20.46;48.05;100414.25;87114;272;22572;-77
2024/04/14 05:00:22;;;;;;;0.90;0.50;;;;;;;20.54;47.79;100410.51;87081;268;137755;-75
2024/04/14 05:02:23;;;;;;;2.30;0.30;;;;;;;20.54;48.09;100405.77;87105;271;22505;-75
2024/04/14 05:04:24;;;;;;;0.30;0.20;;;;;;;20.53;47.69;100407.20;87039;279;136889;-75
2024/04/14 05:06:24;;;;;;;0.30;0.30;;;;;;;20.42;47.53;100410.67;87182;271;23008;-76
2024/04/14 05:08:26;;;;;;;1.00;0.30;;;;;;;20.28;47.94;100407.63;87070;268;136498;-76
2024/04/14 05:10:27;;;;;;;1.00;0.20;;;;;;;20.14;47.86;100406.70;87292;278;24001;-74
2024/04/14 05:12:27;;;;;;;0.20;0.20;;;;;;;20.02;48.33;100407.03;87017;280;136984;-72
2024/04/14 05:14:28;;;;;;;0.30;0.20;;;;;;;19.99;48.72;100410.27;87224;274;22564;-77
2024/04/14 05:16:29;;;;;;;0.80;0.50;;;;;;;19.92;47.93;100403.36;87053;267;136242;-72
2024/04/14 05:18:29;;;;;;;0.30;0.20;;;;;;;19.72;48.37;100401.77;87185;271;22566;-76
2024/04/14 05:20:31;;;;;;;0.10;0.10;;;;;;;19.57;48.76;100404.38;86919;277;136117;-71
2024/04/14 05:22:31;;;;;;;0.20;0.20;;;;;;;19.44;48.93;100405.65;87051;271;22515;-77
2024/04/14 05:24:32;;;;;;;1.10;0.30;;;;;;;19.42;49.11;100405.53;87356;270;137723;-74
2024/04/14 05:26:33;;;;;;;0.60;0.30;;;;;;;19.33;49.28;100408.48;87525;271;25092;-74
2024/04/14 05:28:34;;;;;;;0.30;0.10;;;;;;;19.11;49.85;100410.09;87064;276;137267;-76
2024/04/14 05:30:39;;;;;;;0.50;0.30;;;;;;;18.97;50.57;100410.49;87253;276;22774;-76
2024/04/14 05:32:40;;;;;;;0.40;0.20;;;;;;;18.85;50.57;100405.89;87399;262;137778;-73
2024/04/14 05:34:41;;;;;;;0.40;0.40;;;;;;;18.68;51.05;100400.41;87505;281;22557;-72
2024/04/14 05:36:44;;;;;;;0.10;0.10;;;;;;;18.64;51.28;100402.07;87951;268;136612;-74
2024/04/14 05:38:47;;;;;;;0.20;0.10;;;;;;;18.57;51.53;100396.64;88791;267;22548;-72
2024/04/14 05:40:50;;;;;;;1.00;0.20;;;;;;;18.49;52.43;100400.59;88462;268;136496;-72
2024/04/14 05:42:50;;;;;;;2.10;0.20;;;;;;;18.58;51.86;100398.59;88920;267;22563;-78
2024/04/14 05:44:51;;;;;;;1.30;0.20;;;;;;;18.66;51.47;100394.39;88518;268;136312;-74
2024/04/14 05:46:53;;;;;;;0.20;0.10;;;;;;;18.74;50.92;100395.02;87844;268;24010;-76
2024/04/14 05:48:55;;;;;;;0.30;0.20;;;;;;;18.75;51.57;100392.71;87110;279;136394;-73
2024/04/14 05:50:56;;;;;;;0.40;0.20;;;;;;;18.79;52.20;100393.40;87225;268;25235;-72
2024/04/14 05:52:57;;;;;;;1.20;0.50;;;;;;;18.98;52.06;100390.02;87048;280;136559;-70
2024/04/14 05:54:57;;;;;;;2.40;0.20;;;;;;;19.17;51.20;100387.84;87223;270;22564;-69
2024/04/14 05:56:59;;;;;;;0.70;0.30;;;;;;;19.29;51.66;100386.30;87020;272;136399;-67
2024/04/14 05:59:00;;;;;;;0.70;0.30;;;;;;;19.39;50.24;100383.86;87210;278;22555;-73
2024/04/14 06:01:08;;;;;;;0.60;0.20;;;;;;;19.23;50.69;100388.15;87075;271;137121;-70
2024/04/14 06:03:09;;;;;;;0.70;0.20;;;;;;;19.14;51.23;100385.84;87118;279;25110;-69
2024/04/14 06:05:11;;;;;;;0.80;0.30;;;;;;;19.20;51.74;100386.92;87028;271;137096;-70
2024/04/14 06:07:12;;;;;;;0.60;0.20;;;;;;;19.35;51.36;100386.34;87185;270;25957;-75
2024/04/14 06:09:12;;;;;;;0.20;0.10;;;;;;;19.42;50.45;100384.41;87090;270;135903;-73
2024/04/14 06:11:14;;;;;;;2.50;0.50;;;;;;;19.36;50.12;100382.85;87110;280;22533;-70
2024/04/14 06:13:15;;;;;;;0.60;0.30;;;;;;;19.21;50.75;100380.71;87039;271;135794;-71
2024/04/14 06:15:16;;;;;;;0.90;0.30;;;;;;;19.08;51.46;100379.58;87132;271;24001;-71
2024/04/14 06:17:18;;;;;;;2.10;0.50;;;;;;;19.09;51.88;100381.80;87163;264;136328;-72
2024/04/14 06:19:20;;;;;;;0.40;0.20;;;;;;;19.17;51.74;100375.41;87139;275;24062;-72
2024/04/14 06:21:20;;;;;;;1.80;0.50;;;;;;;19.14;51.75;100378.27;86980;272;136125;-72
2024/04/14 06:23:21;;;;;;;0.80;0.10;;;;;;;19.11;51.94;100370.02;87094;278;22682;-71
2024/04/14 06:25:22;;;;;;;0.60;0.20;;;;;;;19.15;52.13;100368.23;87019;279;136427;-72
2024/04/14 06:27:23;;;;;;;0.80;0.20;;;;;;;19.12;51.79;100367.64;87174;279;22648;-70
2024/04/14 06:29:24;;;;;;;0.50;0.30;;;;;;;19.04;52.01;100369.73;87001;270;137602;-72
2024/04/14 06:31:25;;;;;;;2.20;0.60;;;;;;;18.86;51.91;100373.61;87050;268;22564;-68
2024/04/14 06:33:26;;;;;;;0.70;0.40;;;;;;;18.73;52.77;100374.02;87071;269;137924;-68
2024/04/14 06:35:26;;;;;;;0.60;0.30;;;;;;;18.72;52.81;100371.17;87054;270;23995;-69
2024/04/14 06:37:27;;;;;;;0.80;0.30;;;;;;;18.71;52.89;100369.36;87036;268;137233;-74
2024/04/14 06:39:28;;;;;;;0.70;0.50;;;;;;;18.68;53.39;100370.13;87177;279;25117;-70
2024/04/14 06:41:28;;;;;;;0.50;0.20;;;;;;;18.59;53.70;100366.01;87136;277;136545;-72
2024/04/14 06:43:29;;;;;;;0.90;0.20;;;;;;;18.52;54.30;100363.71;87260;274;22713;-74
2024/04/14 06:45:29;;;;;;;1.60;0.40;;;;;;;18.47;54.40;100362.39;87030;279;137823;-72
2024/04/14 06:47:30;;;;;;;1.00;0.20;;;;;;;18.42;54.76;100355.16;87291;266;22723;-73
2024/04/14 06:49:31;;;;;;;1.40;0.20;;;;;;;18.41;55.08;100358.05;87085;271;136055;-70
2024/04/14 06:51:31;;;;;;;2.90;0.30;;;;;;;18.43;55.25;100352.05;87194;263;22564;-74
2024/04/14 06:53:32;;;;;;;0.40;0.30;;;;;;;18.47;55.60;100355.04;87221;279;136111;-75
2024/04/14 06:55:33;;;;;;;0.70;0.20;;;;;;;18.54;55.47;100359.11;87125;271;24176;-74
2024/04/14 06:57:33;;;;;;;0.70;0.30;;;;;;;18.52;54.57;100363.29;86951;279;136677;-70
2024/04/14 06:59:35;;;;;;;1.50;0.50;;;;;;;18.38;55.04;100365.17;87043;275;22565;-72
2024/04/14 07:01:36;;;;;;;1.00;0.60;;;;;;;18.20;55.44;100365.82;86947;272;137215;-75
2024/04/14 07:03:37;;;;;;;0.30;0.30;;;;;;;18.03;55.98;100363.90;87033;271;22550;-82
2024/04/14 07:05:37;;;;;;;2.30;0.40;;;;;;;17.91;56.77;100360.48;87026;278;136215;-75
2024/04/14 07:07:38;;;;;;;2.10;0.40;;;;;;;17.86;56.79;100354.65;86993;278;22961;-78
2024/04/14 07:09:39;;;;;;;2.40;0.70;;;;;;;17.79;57.21;100352.25;86978;271;136398;-70
2024/04/14 07:11:40;;;;;;;1.00;0.20;;;;;;;17.76;57.70;100353.80;86904;271;25348;-78
2024/04/14 07:13:41;;;;;;;1.30;0.50;;;;;;;17.69;58.16;100355.54;86746;271;136232;-73
2024/04/14 07:15:41;;;;;;;1.00;0.70;;;;;;;17.60;58.35;100358.73;86962;271;24253;-74
2024/04/14 07:17:42;;;;;;;1.90;0.40;;;;;;;17.52;58.74;100357.99;87154;267;136373;-75
2024/04/14 07:19:43;;;;;;;1.40;0.60;;;;;;;17.45;59.41;100351.27;87297;275;22649;-74
2024/04/14 07:21:44;;;;;;;0.50;0.40;;;;;;;17.39;59.69;100347.55;87105;271;136949;-80
2024/04/14 07:23:44;;;;;;;0.70;0.40;;;;;;;17.32;60.31;100346.98;87148;270;25198;-81
2024/04/14 07:25:45;;;;;;;0.90;0.60;;;;;;;17.30;60.74;100346.27;87015;278;137402;-75
2024/04/14 07:27:46;;;;;;;1.90;0.60;;;;;;;17.33;61.00;100344.67;87011;271;25072;-70
2024/04/14 07:29:47;;;;;;;1.50;0.80;;;;;;;17.36;60.78;100345.00;87061;274;135822;-70
2024/04/14 07:31:48;;;;;;;3.40;0.70;;;;;;;17.35;60.59;100345.47;87135;270;22712;-73
2024/04/14 07:33:48;;;;;;;1.20;0.70;;;;;;;17.36;61.16;100341.40;86913;271;137098;-76
2024/04/14 07:35:50;;;;;;;1.50;0.70;;;;;;;17.39;61.42;100337.70;87169;268;22587;-77
2024/04/14 07:37:51;;;;;;;2.20;0.80;;;;;;;17.39;61.45;100335.37;87073;280;136176;-70
2024/04/14 07:39:51;;;;;;;3.30;0.80;;;;;;;17.37;61.53;100336.74;87129;271;24949;-72
2024/04/14 07:41:52;;;;;;;2.20;0.80;;;;;;;17.37;61.61;100339.30;87080;280;136406;-82
2024/04/14 07:43:53;;;;;;;1.70;1.30;;;;;;;17.41;61.67;100341.27;87190;272;22602;-74
2024/04/14 07:45:54;;;;;;;1.40;0.60;;;;;;;17.45;61.31;100341.52;87103;274;135950;-75
2024/04/14 07:47:55;;;;;;;0.50;0.50;;;;;;;17.49;61.26;100335.52;87214;279;25188;-76
2024/04/14 07:49:55;;;;;;;2.10;0.90;;;;;;;17.58;62.00;100330.44;87522;268;135935;-73
2024/04/14 07:51:56;;;;;;;1.30;0.70;;;;;;;17.72;61.84;100327.83;87266;276;22595;-78
2024/04/14 07:53:56;;;;;;;1.00;0.50;;;;;;;17.84;60.81;100325.09;87155;275;136000;-76
2024/04/14 07:55:57;;;;;;;1.60;0.60;;;;;;;17.86;60.24;100319.70;87275;272;24295;-75
2024/04/14 07:57:58;;;;;;;1.50;0.90;;;;;;;17.79;60.03;100315.54;87064;276;137165;-75
2024/04/14 07:59:59;;;;;;;2.00;0.60;;;;;;;17.74;60.67;100308.09;87207;275;22849;-83
2024/04/14 08:01:59;;;;;;;1.90;1.20;;;;;;;17.79;60.96;100306.20;87183;279;136012;-78
2024/04/14 08:04:01;;;;;;;2.80;0.70;;;;;;;17.88;60.93;100306.69;87177;271;22563;-75
2024/04/14 08:06:02;;;;;;;2.40;0.50;;;;;;;17.98;60.74;100301.08;87333;265;22540;-78
2024/04/14 08:08:03;;;;;;;1.10;0.80;;;;;;;18.03;60.52;100297.69;87618;265;137391;-71
2024/04/14 08:10:05;;;;;;;1.40;0.60;;;;;;;18.08;60.32;100293.27;87552;278;22579;-72
2024/04/14 08:12:05;;;;;;;0.70;0.60;;;;;;;18.18;60.02;100291.65;87325;280;136799;-76
2024/04/14 08:14:10;;;;;;;0.70;0.70;;;;;;;18.29;60.10;100288.96;87369;270;22571;-71
2024/04/14 08:16:11;;;;;;;1.40;0.80;;;;;;;18.42;59.28;100288.60;87171;271;136471;-76
2024/04/14 08:18:11;;;;;;;0.80;0.60;;;;;;;18.50;58.80;100284.33;87102;279;22532;-75
2024/04/14 08:20:12;;;;;;;3.00;1.00;;;;;;;18.51;58.28;100277.40;87040;275;136666;-76
2024/04/14 08:22:13;;;;;;;2.60;0.80;;;;;;;18.46;58.38;100282.38;87083;275;22555;-73
2024/04/14 08:24:14;;;;;;;0.90;0.40;;;;;;;18.44;58.60;100277.48;87146;271;136521;-80
2024/04/14 08:26:14;;;;;;;5.50;1.00;;;;;;;18.47;58.93;100273.75;87255;270;23397;-73
2024/04/14 08:28:15;;;;;;;1.10;1.00;;;;;;;18.56;58.48;100271.81;86980;268;136249;-76
2024/04/14 08:30:17;;;;;;;1.10;0.90;;;;;;;18.63;58.15;100264.86;87216;270;25099;-78
2024/04/14 08:32:17;;;;;;;3.10;0.70;;;;;;;18.65;58.03;100265.54;87072;271;137931;-69
2024/04/14 08:34:18;;;;;;;2.10;1.20;;;;;;;18.67;58.00;100255.27;87190;279;24282;-80
2024/04/14 08:36:19;;;;;;;2.50;0.90;;;;;;;18.69;57.55;100257.84;87285;268;136408;-74
2024/04/14 08:38:20;;;;;;;3.50;1.30;;;;;;;18.73;57.93;100253.52;87178;267;22601;-74
2024/04/14 08:40:20;;;;;;;2.30;1.40;;;;;;;18.80;57.64;100248.30;87107;275;136195;-77
2024/04/14 08:42:21;;;;;;;3.10;1.10;;;;;;;18.84;57.39;100251.41;87188;276;22572;-73
2024/04/14 08:44:23;;;;;;;1.00;0.50;;;;;;;18.91;57.35;100247.09;87129;279;135978;-75
2024/04/14 08:46:26;;;;;;;1.70;0.80;;;;;;;18.96;57.39;100245.67;87264;280;24034;-72
2024/04/14 08:48:29;;;;;;;3.00;1.10;;;;;;;19.01;57.02;100247.38;87151;268;136398;-72
2024/04/14 08:50:30;;;;;;;1.50;0.60;;;;;;;19.05;56.62;100245.10;87430;279;25079;-82
2024/04/14 08:52:33;;;;;;;1.10;0.60;;;;;;;19.06;56.66;100241.73;87289;271;136478;-80
2024/04/14 08:54:34;;;;;;;3.50;0.30;;;;;;;19.10;56.62;100234.27;87436;270;23997;-75
2024/04/14 08:56:35;;;;;;;0.90;0.50;;;;;;;19.18;56.42;100229.41;87164;272;135920;-73
2024/04/14 08:58:39;;;;;;;4.20;0.60;;;;;;;19.28;55.32;100228.80;87390;267;22582;-74
2024/04/14 09:00:42;;;;;;;3.90;1.00;;;;;;;19.34;55.39;100221.20;87249;271;136752;-75
2024/04/14 09:02:45;;;;;;;1.40;0.70;;;;;;;19.39;55.37;100219.50;87322;272;24158;-75
2024/04/14 09:04:49;;;;;;;1.70;0.70;;;;;;;19.43;54.97;100214.14;87271;275;136108;-73
2024/04/14 09:06:50;;;;;;;1.90;0.90;;;;;;;19.50;54.43;100211.30;87431;270;24027;-82
2024/04/14 09:08:51;;;;;;;0.50;0.40;;;;;;;19.53;54.84;100205.73;87077;268;137310;-74
2024/04/14 09:10:52;;;;;;;1.60;1.20;;;;;;;19.57;55.06;100205.67;87154;279;23999;-78
2024/04/14 09:12:56;;;;;;;1.30;0.80;;;;;;;19.61;54.49;100202.31;86434;270;883521;-77
2024/04/14 09:14:56;;;;;;;1.40;1.20;;;;;;;19.62;54.36;100199.25;87359;275;24052;-77
2024/04/14 09:16:57;;;;;;;2.10;0.80;;;;;;;19.62;54.25;100193.46;87115;271;135690;-74
2024/04/14 09:18:58;;;;;;;5.50;0.80;;;;;;;19.65;54.53;100190.23;87267;271;25220;-73
2024/04/14 09:21:01;;;;;;;0.80;0.50;;;;;;;19.65;54.54;100188.29;87237;270;136119;-75
2024/04/14 09:23:01;;;;;;;1.00;0.60;;;;;;;19.67;54.39;100185.58;87278;276;22561;-74
2024/04/14 09:25:08;;;;;;;3.10;0.80;;;;;;;19.72;54.54;100183.96;87209;270;136058;-76
2024/04/14 09:27:08;;;;;;;1.30;1.10;;;;;;;19.81;54.57;100179.44;87160;271;23777;-73